Vineland, Colorado
Current Conditions -  °F | °C
As of 11:53 PM on Wednesday 22 Oct 2014 (Local Time) from KPUB Reporting Station
Clear Clear  
Wind Chill: 53°   Ceiling: Unl
Heat Index: 53°   Visibility: 10mi
Dew Point: 44°   Wind: 8mph
Humidity: 71%   Direction: 360°N
Pressure: 30.13"   Gusts: NA
Location:  38.2482°N, 104.47°W
Report Text: KPUB 230553Z AUTO 36007KT 10SM CLR 12/07 A3013 RMK AO2 SLP163 T01170067 10211 20117 51007
Loading
Personal Weather Stations






























Interactive Weather Map
Tropical Storm Tracking
New forecast layout! Learn more

10-Day Weather Forecast

Advertisements
Track Severe Weather on mobile